Lenoir, NC

8:42 AM EDT on September 27, 2016 (GMT -0400)
Charlesmont | | Change Station

Elev 1289 ft 35.94 °N, 81.51 °W | Updated 37 seconds ago

Overcast
Overcast
66.9 °F
Feels Like 66.9 °F
N
0.0
Wind Variable Wind from West

Today
High -- | Low -- °F
--% Chance of Precip.
Yesterday
High -- | Low -- °F
Precip. -- in
Pressure 29.93 in
Visibility 4.0 miles
Clouds Overcast 400 ft
Dew Point 66 °F
Humidity 98%
Rainfall 0.04 in
Snow Depth Not available.
7:18 AM 7:14 PM
Waning Crescent, 12% visible
METAR KHKY 271153Z 00000KT 4SM BR OVC004 19/19 A2999 RMK AO2 CIG 003V008 SLP135 60000 70041 T01940194 10194 20194 58001 $
Pressure 29.93 in
Visibility 4.0 miles
Clouds Overcast 400 ft
Dew Point 66 °F
Humidity 98%
Rainfall 0.04 in
Snow Depth Not available.
7:18 AM 7:14 PM
Waning Crescent, 12% visible
METAR KHKY 271153Z 00000KT 4SM BR OVC004 19/19 A2999 RMK AO2 CIG 003V008 SLP135 60000 70041 T01940194 10194 20194 58001 $

10-Day Weather Forecast

Almanac

Astronomy

Sep. 27, 2016 Rise Set
Actual Time
Civil Twilight
Nautical Twilight
Astronomical Twilight
Moon
Length of Visible Light
Length of Day
Tomorrow will be .
, % of the Moon is Illuminated

Today's Extremes

State Highs State Lows

Community

WunderPhotos

Upload Photos

1,942,074 photos uploaded!

WunderBlog® & News

Nearby

Air Quality

  Air Quality AQ Index Pollutant
Not available.

Snow Depth

Station Depth Elevation

Earthquake Activity

City Distance Mag. Time & Date
Minimum magnitude displayed is 2.5.

Coastal Water Temperatures

Place Temperature

Stations

Nearby Weather Stations

Station Location Temp. Windchill Dew Point Humidity Wind Precip. Elev Updated Type
                   

Watches & Warnings

There are currently no watches in effect.